Time;durP1;ratioP1;P1;durP2;ratioP2;P2;SDS_P1;SDS_P2;PMS_P1;PMS_P2;Temp;Humidity;BMP_temperature;BMP_pressure;BME280_temperature;BME280_humidity;BME280_pressure;Samples;Min_cycle;Max_cycle;Signal;HPM_P1;HPM_P2
2023/02/23 00:00:27;;;;;;;121.78;52.35;;;;;;;;;;5073920;28;20051;-76
2023/02/23 00:02:57;;;;;;;116.60;53.78;;;;;;;;;;5102525;28;20069;-76
2023/02/23 00:05:24;;;;;;;118.32;53.75;;;;;;;;;;5076803;28;20404;-76
2023/02/23 00:07:50;;;;;;;123.55;51.83;;;;;;;;;;5076951;28;20074;-76
2023/02/23 00:10:18;;;;;;;125.53;53.45;;;;;;;;;;5058271;28;20077;-76
2023/02/23 00:12:44;;;;;;;118.43;51.45;;;;;;;;;;5090783;28;20051;-76
2023/02/23 00:15:12;;;;;;;135.77;57.05;;;;;;;;;;5073580;28;20048;-76
2023/02/23 00:17:39;;;;;;;119.38;50.58;;;;;;;;;;5057605;28;20575;-76
2023/02/23 00:20:08;;;;;;;121.03;50.80;;;;;;;;;;5094728;28;20791;-76
2023/02/23 00:22:34;;;;;;;131.68;52.10;;;;;;;;;;5075670;28;20067;-76
2023/02/23 00:25:01;;;;;;;126.68;51.20;;;;;;;;;;5093839;28;20036;-76
2023/02/23 00:27:27;;;;;;;134.15;51.67;;;;;;;;;;5096804;28;20047;-76
2023/02/23 00:29:53;;;;;;;130.45;51.88;;;;;;;;;;5079433;28;20044;-76
2023/02/23 00:32:19;;;;;;;124.43;51.42;;;;;;;;;;5098167;28;20491;-76
2023/02/23 00:34:50;;;;;;;121.60;50.95;;;;;;;;;;5096107;28;20050;-76
2023/02/23 00:37:17;;;;;;;126.70;52.15;;;;;;;;;;5096921;28;20059;-76
2023/02/23 00:39:44;;;;;;;119.93;50.03;;;;;;;;;;5080855;28;20124;-76
2023/02/23 00:42:12;;;;;;;130.13;49.53;;;;;;;;;;5096536;28;20052;-76
2023/02/23 00:44:39;;;;;;;124.88;49.78;;;;;;;;;;5098327;28;20051;-76
2023/02/23 00:47:06;;;;;;;129.90;49.22;;;;;;;;;;5093345;28;20121;-76
2023/02/23 00:49:32;;;;;;;137.00;52.05;;;;;;;;;;5096774;28;20038;-76
2023/02/23 00:51:59;;;;;;;127.68;49.03;;;;;;;;;;5098381;28;20062;-76
2023/02/23 00:54:25;;;;;;;125.07;48.35;;;;;;;;;;5095674;28;20036;-76
2023/02/23 00:56:51;;;;;;;131.65;50.58;;;;;;;;;;5095584;28;20481;-76
2023/02/23 00:59:19;;;;;;;122.43;48.45;;;;;;;;;;5081136;28;20047;-76
2023/02/23 01:01:45;;;;;;;134.48;50.05;;;;;;;;;;5096267;28;20085;-76
2023/02/23 01:04:12;;;;;;;131.05;50.50;;;;;;;;;;5101183;28;20474;-76
2023/02/23 01:06:39;;;;;;;124.68;48.10;;;;;;;;;;5076696;28;20039;-76
2023/02/23 01:09:10;;;;;;;120.10;46.17;;;;;;;;;;5079252;28;20112;-76
2023/02/23 01:11:36;;;;;;;122.63;48.13;;;;;;;;;;5090754;28;20053;-76
2023/02/23 01:14:03;;;;;;;125.60;48.03;;;;;;;;;;5071748;28;20083;-76
2023/02/23 01:16:30;;;;;;;137.65;49.95;;;;;;;;;;5043008;28;20052;-76
2023/02/23 01:18:57;;;;;;;124.00;49.00;;;;;;;;;;5078844;28;20035;-76
2023/02/23 01:21:25;;;;;;;130.45;50.20;;;;;;;;;;5084264;28;20047;-76
2023/02/23 01:23:52;;;;;;;129.32;49.00;;;;;;;;;;5088184;28;20040;-76
2023/02/23 01:26:19;;;;;;;132.85;48.83;;;;;;;;;;5094824;28;20050;-76
2023/02/23 01:28:52;;;;;;;139.50;50.50;;;;;;;;;;5094615;28;20043;-76
2023/02/23 01:31:19;;;;;;;124.75;49.08;;;;;;;;;;5076543;28;20066;-76
2023/02/23 01:33:45;;;;;;;129.60;49.78;;;;;;;;;;5081257;28;20085;-76
2023/02/23 01:36:12;;;;;;;139.10;50.15;;;;;;;;;;5078590;28;20039;-76
2023/02/23 01:38:38;;;;;;;124.57;47.75;;;;;;;;;;5096183;28;20513;-76
2023/02/23 01:41:05;;;;;;;139.55;51.03;;;;;;;;;;5078499;28;20146;-76
2023/02/23 01:43:32;;;;;;;133.38;47.15;;;;;;;;;;5077816;28;20040;-76
2023/02/23 01:45:58;;;;;;;134.32;49.08;;;;;;;;;;5079879;28;20098;-76
2023/02/23 01:48:26;;;;;;;139.73;50.55;;;;;;;;;;5096306;28;20067;-76
2023/02/23 01:50:59;;;;;;;137.05;49.47;;;;;;;;;;5076295;28;20121;-76
2023/02/23 01:53:27;;;;;;;128.15;50.00;;;;;;;;;;5092799;28;20040;-76
2023/02/23 01:55:55;;;;;;;131.35;48.55;;;;;;;;;;5096527;28;20032;-76
2023/02/23 01:58:22;;;;;;;135.52;49.67;;;;;;;;;;5095744;28;20171;-76
2023/02/23 02:00:50;;;;;;;130.93;49.65;;;;;;;;;;5075124;28;20047;-76
2023/02/23 02:03:22;;;;;;;143.25;50.28;;;;;;;;;;5075109;28;20047;-75
2023/02/23 02:05:49;;;;;;;137.52;50.35;;;;;;;;;;5073296;28;20055;-75
2023/02/23 02:08:17;;;;;;;135.75;49.75;;;;;;;;;;5074994;28;20123;-76
2023/02/23 02:10:46;;;;;;;129.10;47.80;;;;;;;;;;5074607;28;20051;-75
2023/02/23 02:13:17;;;;;;;131.18;49.58;;;;;;;;;;5091177;28;20047;-76
2023/02/23 02:15:52;;;;;;;134.38;47.67;;;;;;;;;;5090431;28;20051;-75
2023/02/23 02:18:25;;;;;;;128.95;46.30;;;;;;;;;;5089736;28;20036;-76
2023/02/23 02:21:03;;;;;;;129.63;47.25;;;;;;;;;;5091028;28;20054;-76
2023/02/23 02:23:30;;;;;;;127.18;49.28;;;;;;;;;;5076215;28;20802;-75
2023/02/23 02:26:02;;;;;;;122.00;44.72;;;;;;;;;;5077235;28;20181;-75
2023/02/23 02:28:37;;;;;;;130.85;48.13;;;;;;;;;;5083026;28;20082;-76
2023/02/23 02:31:26;;;;;;;113.93;45.42;;;;;;;;;;5077463;28;20044;-76
2023/02/23 02:34:09;;;;;;;120.72;46.95;;;;;;;;;;5077258;28;20044;-75
2023/02/23 02:36:57;;;;;;;117.97;45.40;;;;;;;;;;5096737;28;20109;-75
2023/02/23 02:39:35;;;;;;;118.22;45.28;;;;;;;;;;5081791;28;20050;-74
2023/02/23 02:42:21;;;;;;;122.03;44.75;;;;;;;;;;5093092;28;20062;-76
2023/02/23 02:44:53;;;;;;;112.07;42.17;;;;;;;;;;5080309;28;20398;-77
2023/02/23 02:47:28;;;;;;;105.65;42.88;;;;;;;;;;5080127;28;20047;-76
2023/02/23 02:50:01;;;;;;;110.40;42.25;;;;;;;;;;5101959;28;20039;-76
2023/02/23 02:52:32;;;;;;;121.65;44.38;;;;;;;;;;5074689;28;20120;-76
2023/02/23 02:55:03;;;;;;;111.13;42.13;;;;;;;;;;5099686;28;20043;-76
2023/02/23 02:57:30;;;;;;;103.32;41.10;;;;;;;;;;5093403;28;20116;-76
2023/02/23 04:18:12;;;;;;;78.20;35.47;;;;;;;;;;5095353;28;20059;-76
2023/02/23 04:20:38;;;;;;;83.78;36.47;;;;;;;;;;5081910;28;20437;-76
2023/02/23 04:23:05;;;;;;;86.97;38.38;;;;;;;;;;5072778;28;20452;-76
2023/02/23 04:25:31;;;;;;;83.50;36.42;;;;;;;;;;5081368;28;20054;-76
2023/02/23 04:27:57;;;;;;;90.43;38.30;;;;;;;;;;5084215;28;20055;-76
2023/02/23 04:30:24;;;;;;;94.38;38.75;;;;;;;;;;5098706;28;20036;-76
2023/02/23 04:32:52;;;;;;;89.75;37.13;;;;;;;;;;5080736;28;21226;-76
2023/02/23 04:35:18;;;;;;;82.07;36.55;;;;;;;;;;5078118;28;20054;-76
2023/02/23 04:37:44;;;;;;;84.55;35.42;;;;;;;;;;5097415;28;20119;-76
2023/02/23 04:40:10;;;;;;;92.82;40.05;;;;;;;;;;5078442;28;20093;-76
2023/02/23 04:42:38;;;;;;;82.47;36.15;;;;;;;;;;5083956;28;20055;-76
2023/02/23 04:45:04;;;;;;;88.20;37.90;;;;;;;;;;5096596;28;20048;-76
2023/02/23 04:47:30;;;;;;;87.88;37.25;;;;;;;;;;5082112;28;20051;-76
2023/02/23 04:49:56;;;;;;;82.30;37.63;;;;;;;;;;5095861;28;20048;-76
2023/02/23 04:52:23;;;;;;;87.80;37.55;;;;;;;;;;5098423;28;20069;-76
2023/02/23 04:54:49;;;;;;;91.43;39.15;;;;;;;;;;5084104;28;20050;-76
2023/02/23 04:57:15;;;;;;;88.25;35.80;;;;;;;;;;5100837;28;20047;-76
2023/02/23 04:59:42;;;;;;;97.20;39.08;;;;;;;;;;5080112;28;20059;-76
2023/02/23 05:02:08;;;;;;;90.47;38.83;;;;;;;;;;5095079;28;20411;-76
2023/02/23 05:04:34;;;;;;;89.18;38.50;;;;;;;;;;5079016;28;20040;-76
2023/02/23 05:07:02;;;;;;;91.10;36.97;;;;;;;;;;5091963;28;20039;-76
2023/02/23 05:09:28;;;;;;;101.57;39.38;;;;;;;;;;5073869;28;20036;-76
2023/02/23 05:11:55;;;;;;;94.60;38.67;;;;;;;;;;5094453;28;20473;-76
2023/02/23 05:14:21;;;;;;;94.45;37.15;;;;;;;;;;5073196;28;20070;-76
2023/02/23 05:16:48;;;;;;;86.78;38.78;;;;;;;;;;5092068;28;20048;-76
2023/02/23 05:19:14;;;;;;;86.63;36.78;;;;;;;;;;5093252;28;20048;-76
2023/02/23 05:21:41;;;;;;;84.72;35.55;;;;;;;;;;5092161;28;20726;-76
2023/02/23 05:24:07;;;;;;;85.53;36.45;;;;;;;;;;5080394;28;20043;-76
2023/02/23 05:26:34;;;;;;;85.55;36.30;;;;;;;;;;5090556;28;20051;-76
2023/02/23 05:29:00;;;;;;;77.43;36.58;;;;;;;;;;5050323;28;20070;-76
2023/02/23 05:31:27;;;;;;;91.25;36.05;;;;;;;;;;5068479;28;20062;-76
2023/02/23 05:33:53;;;;;;;93.28;38.22;;;;;;;;;;5091105;28;20093;-76
2023/02/23 05:36:20;;;;;;;89.25;35.60;;;;;;;;;;5073224;28;20062;-76
2023/02/23 05:38:47;;;;;;;75.47;33.70;;;;;;;;;;5073388;28;20123;-76
2023/02/23 05:41:16;;;;;;;89.45;37.35;;;;;;;;;;5094371;28;20089;-76
2023/02/23 05:43:42;;;;;;;78.75;35.30;;;;;;;;;;5096611;28;20478;-76
2023/02/23 05:46:11;;;;;;;82.07;35.55;;;;;;;;;;5077760;28;20047;-76
2023/02/23 05:48:38;;;;;;;89.18;37.65;;;;;;;;;;5075255;28;20096;-76
2023/02/23 05:51:05;;;;;;;88.55;36.38;;;;;;;;;;5090982;28;20043;-76
2023/02/23 05:53:32;;;;;;;84.65;35.83;;;;;;;;;;5072068;28;20058;-76
2023/02/23 05:55:58;;;;;;;80.63;35.25;;;;;;;;;;5077539;28;20127;-76
2023/02/23 05:58:24;;;;;;;87.80;36.88;;;;;;;;;;5096145;28;20204;-77
2023/02/23 06:00:51;;;;;;;79.75;35.33;;;;;;;;;;5077802;28;20067;-75
2023/02/23 06:03:17;;;;;;;82.15;34.70;;;;;;;;;;5079340;28;20134;-76
2023/02/23 06:05:49;;;;;;;77.55;35.30;;;;;;;;;;5094694;28;20047;-76
2023/02/23 06:08:16;;;;;;;78.38;33.95;;;;;;;;;;5080934;28;20048;-76
2023/02/23 06:10:42;;;;;;;76.47;34.67;;;;;;;;;;5075372;28;20048;-76
2023/02/23 06:13:08;;;;;;;79.65;33.95;;;;;;;;;;5077816;28;20046;-76
2023/02/23 06:15:34;;;;;;;78.97;34.30;;;;;;;;;;5081147;28;20050;-76
2023/02/23 06:18:00;;;;;;;70.82;30.80;;;;;;;;;;5078516;28;20096;-76
2023/02/23 06:20:26;;;;;;;66.88;31.10;;;;;;;;;;5076474;28;20051;-76
2023/02/23 06:22:52;;;;;;;72.22;31.92;;;;;;;;;;5083192;28;20134;-75
2023/02/23 06:25:19;;;;;;;65.43;30.23;;;;;;;;;;5082495;28;20139;-76
2023/02/23 06:27:45;;;;;;;66.15;31.17;;;;;;;;;;5086794;28;20556;-75
2023/02/23 06:30:11;;;;;;;73.75;31.13;;;;;;;;;;5079425;28;20051;-73
2023/02/23 06:32:38;;;;;;;63.60;30.33;;;;;;;;;;5079998;28;20066;-73
2023/02/23 06:35:05;;;;;;;61.72;28.95;;;;;;;;;;5080567;28;20039;-74
2023/02/23 06:37:31;;;;;;;58.38;28.33;;;;;;;;;;5102021;28;20172;-74
2023/02/23 06:39:57;;;;;;;55.15;27.42;;;;;;;;;;5067589;28;20101;-73
2023/02/23 06:42:24;;;;;;;66.40;30.33;;;;;;;;;;5074492;28;20056;-74
2023/02/23 06:44:50;;;;;;;59.63;28.85;;;;;;;;;;5076504;28;20071;-73
2023/02/23 06:47:16;;;;;;;61.22;28.20;;;;;;;;;;5077290;28;20051;-73
2023/02/23 06:49:42;;;;;;;49.63;26.30;;;;;;;;;;5081182;28;20040;-74
2023/02/23 06:52:12;;;;;;;55.33;26.80;;;;;;;;;;5081034;28;20416;-74
2023/02/23 06:54:38;;;;;;;55.78;26.40;;;;;;;;;;5084458;28;20040;-75
2023/02/23 06:57:05;;;;;;;55.13;25.55;;;;;;;;;;5077681;28;20056;-75
2023/02/23 06:59:31;;;;;;;52.20;25.52;;;;;;;;;;5084965;28;20040;-75
2023/02/23 07:01:58;;;;;;;50.25;25.60;;;;;;;;;;5081662;28;20040;-75
2023/02/23 07:04:24;;;;;;;58.78;26.13;;;;;;;;;;5082215;28;20040;-75
2023/02/23 07:06:51;;;;;;;51.88;26.48;;;;;;;;;;5079719;28;20044;-75
2023/02/23 07:09:17;;;;;;;54.67;26.45;;;;;;;;;;5079878;28;20118;-75
2023/02/23 07:11:43;;;;;;;55.75;27.10;;;;;;;;;;5059361;28;20091;-75
2023/02/23 07:14:10;;;;;;;56.58;26.38;;;;;;;;;;5082365;28;20484;-75
2023/02/23 07:16:38;;;;;;;53.75;25.55;;;;;;;;;;5073852;28;20040;-76
2023/02/23 07:19:04;;;;;;;55.38;25.38;;;;;;;;;;5078529;28;20146;-77
2023/02/23 07:21:32;;;;;;;58.17;26.08;;;;;;;;;;5074786;28;20048;-76
2023/02/23 07:23:58;;;;;;;52.40;27.17;;;;;;;;;;5078020;28;20044;-76
2023/02/23 07:26:25;;;;;;;56.25;26.45;;;;;;;;;;5078464;28;20123;-76
2023/02/23 07:28:51;;;;;;;56.50;25.83;;;;;;;;;;5079236;28;20028;-77
2023/02/23 07:31:17;;;;;;;57.05;26.10;;;;;;;;;;5077962;28;20036;-76
2023/02/23 07:33:44;;;;;;;58.58;26.98;;;;;;;;;;5083417;28;20055;-76
2023/02/23 07:36:11;;;;;;;51.55;26.40;;;;;;;;;;5075436;28;20052;-76
2023/02/23 07:38:37;;;;;;;56.83;26.70;;;;;;;;;;5074648;28;20101;-76
2023/02/23 07:41:03;;;;;;;57.38;27.25;;;;;;;;;;5070814;28;20045;-75
2023/02/23 07:43:30;;;;;;;55.83;26.23;;;;;;;;;;5073928;28;20109;-76
2023/02/23 07:46:00;;;;;;;58.75;26.63;;;;;;;;;;5063221;28;20398;-76
2023/02/23 07:48:26;;;;;;;51.35;26.65;;;;;;;;;;5073344;28;20083;-77
2023/02/23 07:50:52;;;;;;;54.55;26.63;;;;;;;;;;5074432;28;20105;-76
2023/02/23 07:53:18;;;;;;;53.30;27.50;;;;;;;;;;5075152;28;20079;-74
2023/02/23 07:55:45;;;;;;;60.35;27.85;;;;;;;;;;5094267;28;20075;-73
2023/02/23 07:58:12;;;;;;;61.03;27.15;;;;;;;;;;5075297;28;20149;-73
2023/02/23 08:00:39;;;;;;;57.78;28.10;;;;;;;;;;5074749;28;20040;-73
2023/02/23 08:03:05;;;;;;;53.10;26.75;;;;;;;;;;5094056;28;20514;-73
2023/02/23 08:05:31;;;;;;;59.60;27.95;;;;;;;;;;5076963;28;20570;-75
2023/02/23 08:07:58;;;;;;;55.65;26.08;;;;;;;;;;5094698;28;20066;-80
2023/02/23 08:10:25;;;;;;;48.85;25.92;;;;;;;;;;5078772;28;20043;-80
2023/02/23 08:12:51;;;;;;;55.17;26.08;;;;;;;;;;5061575;28;20031;-81
2023/02/23 08:15:17;;;;;;;53.53;26.58;;;;;;;;;;5074716;28;20101;-81
2023/02/23 08:17:43;;;;;;;52.53;27.00;;;;;;;;;;5076130;28;20097;-80
2023/02/23 08:20:10;;;;;;;53.22;27.00;;;;;;;;;;5078679;28;20395;-80
2023/02/23 08:22:36;;;;;;;53.83;25.05;;;;;;;;;;5092067;28;20081;-74
2023/02/23 08:25:04;;;;;;;48.80;24.35;;;;;;;;;;5094362;28;20036;-74
2023/02/23 08:27:33;;;;;;;50.55;25.42;;;;;;;;;;5075445;28;20051;-74
2023/02/23 08:30:02;;;;;;;54.00;25.65;;;;;;;;;;5072259;28;20097;-73
2023/02/23 08:32:29;;;;;;;58.50;26.13;;;;;;;;;;5091375;28;20079;-68
2023/02/23 08:34:56;;;;;;;57.10;26.23;;;;;;;;;;5094744;28;20056;-69
2023/02/23 08:37:23;;;;;;;52.05;25.42;;;;;;;;;;5092496;28;20051;-69
2023/02/23 08:39:49;;;;;;;56.38;25.75;;;;;;;;;;5092939;28;20044;-69
2023/02/23 08:42:17;;;;;;;57.83;26.48;;;;;;;;;;5093838;28;20131;-69
2023/02/23 08:44:43;;;;;;;53.00;25.65;;;;;;;;;;5074804;28;20097;-69
2023/02/23 08:47:09;;;;;;;61.13;28.52;;;;;;;;;;5075843;28;20054;-69
2023/02/23 08:49:35;;;;;;;69.85;28.45;;;;;;;;;;5092893;28;20130;-69
2023/02/23 08:52:02;;;;;;;64.18;28.92;;;;;;;;;;5079526;28;20471;-69
2023/02/23 08:54:29;;;;;;;66.18;28.38;;;;;;;;;;5078754;28;20161;-69
2023/02/23 08:56:57;;;;;;;62.97;29.27;;;;;;;;;;5099983;28;20044;-69
2023/02/23 08:59:24;;;;;;;70.43;30.35;;;;;;;;;;5091924;28;20051;-69
2023/02/23 09:01:50;;;;;;;64.63;28.58;;;;;;;;;;5074650;28;20400;-67
2023/02/23 09:04:17;;;;;;;63.25;28.67;;;;;;;;;;5098254;28;20050;-67
2023/02/23 09:06:44;;;;;;;64.40;27.00;;;;;;;;;;5093131;28;20070;-67
2023/02/23 09:09:10;;;;;;;68.25;29.23;;;;;;;;;;5092466;28;20048;-67
2023/02/23 09:11:36;;;;;;;78.30;29.38;;;;;;;;;;5072479;28;20119;-67
2023/02/23 09:14:02;;;;;;;69.07;29.27;;;;;;;;;;5092634;28;20035;-67
2023/02/23 09:16:28;;;;;;;64.15;28.15;;;;;;;;;;5074043;28;20040;-70
2023/02/23 09:18:56;;;;;;;67.85;27.83;;;;;;;;;;5095061;28;20048;-88
2023/02/23 09:21:24;;;;;;;69.07;28.25;;;;;;;;;;5083414;28;20036;-95
2023/02/23 09:23:51;;;;;;;69.95;27.67;;;;;;;;;;5082713;28;20081;-95
2023/02/23 09:26:18;;;;;;;62.67;27.88;;;;;;;;;;5084120;28;20059;-95
2023/02/23 09:28:44;;;;;;;64.93;28.00;;;;;;;;;;5089754;28;20490;-94
2023/02/23 09:31:12;;;;;;;71.28;29.50;;;;;;;;;;5080471;28;20044;-93
2023/02/23 09:33:38;;;;;;;71.43;30.10;;;;;;;;;;5097263;28;20043;-93
2023/02/23 09:36:08;;;;;;;68.30;28.13;;;;;;;;;;5078847;28;20048;-95
2023/02/23 09:38:34;;;;;;;76.78;31.25;;;;;;;;;;5080961;28;20050;-94
2023/02/23 09:41:00;;;;;;;71.90;29.20;;;;;;;;;;5102311;28;20036;-94
2023/02/23 09:43:44;;;;;;;80.20;30.35;;;;;;;;;;5077893;28;20056;-93
2023/02/23 09:46:12;;;;;;;77.70;31.30;;;;;;;;;;5078302;28;20359;-95
2023/02/23 09:48:39;;;;;;;80.18;32.42;;;;;;;;;;5102489;28;20040;-94
2023/02/23 09:51:07;;;;;;;85.07;34.53;;;;;;;;;;5102012;28;20040;-95
2023/02/23 09:53:36;;;;;;;87.15;33.80;;;;;;;;;;5068333;28;20043;-95
2023/02/23 09:56:05;;;;;;;101.75;34.28;;;;;;;;;;5097167;28;20040;-96
2023/02/23 09:58:34;;;;;;;88.07;37.42;;;;;;;;;;5082783;28;20040;-95
2023/02/23 10:01:09;;;;;;;90.88;34.63;;;;;;;;;;5070286;28;20048;-93
2023/02/23 10:03:39;;;;;;;92.22;36.38;;;;;;;;;;5099672;28;20040;-95
2023/02/23 10:06:09;;;;;;;91.30;34.60;;;;;;;;;;5082068;28;20048;-94
2023/02/23 10:08:55;;;;;;;95.70;36.67;;;;;;;;;;5066555;28;20075;-95
2023/02/23 10:11:22;;;;;;;99.00;37.03;;;;;;;;;;5078659;28;20055;-93
2023/02/23 10:13:54;;;;;;;96.03;37.85;;;;;;;;;;5101374;28;20031;-93
2023/02/23 10:16:20;;;;;;;104.78;38.40;;;;;;;;;;5095398;28;20047;-93
2023/02/23 10:18:51;;;;;;;109.38;38.97;;;;;;;;;;5098270;28;20040;-93
2023/02/23 10:21:17;;;;;;;118.28;41.67;;;;;;;;;;5080200;28;20063;-92
2023/02/23 10:23:46;;;;;;;134.32;45.95;;;;;;;;;;5075859;28;20065;-93
2023/02/23 10:26:18;;;;;;;146.13;45.42;;;;;;;;;;5079536;28;20047;-90
2023/02/23 10:28:44;;;;;;;148.50;45.00;;;;;;;;;;5083921;28;20060;-94
2023/02/23 10:31:17;;;;;;;138.15;43.67;;;;;;;;;;5101777;28;20035;-95
2023/02/23 10:33:43;;;;;;;142.43;44.83;;;;;;;;;;5080128;28;20048;-95
2023/02/23 10:36:13;;;;;;;145.27;44.30;;;;;;;;;;5089281;28;20043;-95
2023/02/23 10:38:39;;;;;;;150.05;45.72;;;;;;;;;;5108156;28;20048;-82
2023/02/23 10:41:06;;;;;;;147.07;49.47;;;;;;;;;;5091458;28;20055;-93
2023/02/23 10:43:32;;;;;;;138.43;45.47;;;;;;;;;;5084803;28;20175;-93
2023/02/23 10:45:58;;;;;;;144.48;47.78;;;;;;;;;;5095291;28;20208;-91
2023/02/23 10:48:27;;;;;;;142.23;43.83;;;;;;;;;;5076922;28;21306;-93
2023/02/23 10:51:01;;;;;;;140.90;43.92;;;;;;;;;;5076035;28;20039;-91
2023/02/23 10:53:34;;;;;;;150.50;46.60;;;;;;;;;;5095707;28;20055;-94
2023/02/23 10:56:02;;;;;;;148.63;46.87;;;;;;;;;;5083899;28;20059;-90
2023/02/23 10:58:29;;;;;;;153.38;48.30;;;;;;;;;;5077781;28;20063;-92
2023/02/23 11:00:57;;;;;;;156.40;47.90;;;;;;;;;;5099004;28;20043;-93
2023/02/23 11:03:25;;;;;;;144.35;46.25;;;;;;;;;;5095044;28;20069;-95
2023/02/23 11:05:52;;;;;;;174.77;56.28;;;;;;;;;;5078401;28;20047;-92
2023/02/23 11:08:18;;;;;;;165.05;51.47;;;;;;;;;;5105967;28;20044;-93
2023/02/23 11:11:06;;;;;;;159.25;49.47;;;;;;;;;;5081166;28;20052;-94
2023/02/23 11:13:35;;;;;;;157.20;50.95;;;;;;;;;;5103598;28;20044;-91
2023/02/23 11:16:03;;;;;;;161.82;48.25;;;;;;;;;;5081939;28;20043;-92
2023/02/23 11:18:29;;;;;;;149.32;49.28;;;;;;;;;;5105648;28;20060;-95
2023/02/23 11:20:56;;;;;;;156.68;49.38;;;;;;;;;;5084685;28;20140;-92
2023/02/23 11:23:31;;;;;;;155.55;45.50;;;;;;;;;;5082624;28;20046;-94
2023/02/23 11:25:59;;;;;;;152.77;47.47;;;;;;;;;;5079614;28;20500;-93
2023/02/23 11:28:29;;;;;;;142.60;45.22;;;;;;;;;;5114193;28;20040;-92
2023/02/23 11:30:57;;;;;;;140.18;42.97;;;;;;;;;;5123242;28;20035;-90
2023/02/23 11:33:28;;;;;;;120.05;39.90;;;;;;;;;;5105486;28;20087;-91
2023/02/23 11:35:58;;;;;;;139.55;44.47;;;;;;;;;;5120755;28;20036;-91
2023/02/23 11:38:26;;;;;;;127.32;43.47;;;;;;;;;;5107325;28;20130;-88
2023/02/23 11:41:00;;;;;;;138.77;42.30;;;;;;;;;;5106763;28;20135;-90
2023/02/23 11:43:27;;;;;;;121.22;41.03;;;;;;;;;;5081648;28;20058;-92
2023/02/23 11:45:55;;;;;;;105.57;34.95;;;;;;;;;;5087800;28;20036;-93
2023/02/23 11:48:22;;;;;;;102.40;33.95;;;;;;;;;;5086473;28;20387;-91
2023/02/23 11:50:49;;;;;;;94.65;33.05;;;;;;;;;;5086701;28;20040;-91
2023/02/23 11:53:18;;;;;;;91.28;29.65;;;;;;;;;;5117555;28;20047;-92
2023/02/23 11:55:52;;;;;;;95.15;28.50;;;;;;;;;;5127146;28;20092;-91
2023/02/23 11:58:18;;;;;;;46.55;13.02;;;;;;;;;;5115904;28;20083;-91
2023/02/23 12:00:53;;;;;;;18.73;3.35;;;;;;;;;;5106697;28;20081;-90
2023/02/23 12:03:21;;;;;;;15.15;2.83;;;;;;;;;;5086626;28;20052;-90
2023/02/23 12:05:52;;;;;;;19.77;3.22;;;;;;;;;;5083937;28;20101;-90
2023/02/23 12:08:26;;;;;;;19.08;3.67;;;;;;;;;;5079115;28;20059;-90
2023/02/23 12:10:55;;;;;;;26.40;3.65;;;;;;;;;;5082471;28;20093;-91
2023/02/23 12:13:27;;;;;;;24.33;3.95;;;;;;;;;;5088849;28;20043;-90
2023/02/23 12:16:05;;;;;;;27.38;3.90;;;;;;;;;;5081628;28;20058;-93
2023/02/23 12:18:42;;;;;;;36.90;5.55;;;;;;;;;;5098267;28;20051;-81
2023/02/23 12:21:23;;;;;;;50.05;8.35;;;;;;;;;;5081025;28;20098;-81
2023/02/23 12:23:51;;;;;;;44.92;7.55;;;;;;;;;;5080452;28;20126;-81
2023/02/23 12:26:21;;;;;;;47.53;5.88;;;;;;;;;;5096227;28;20127;-81
2023/02/23 12:28:51;;;;;;;50.03;8.82;;;;;;;;;;5099204;28;20388;-81
2023/02/23 12:31:39;;;;;;;52.20;7.55;;;;;;;;;;5093627;28;20055;-81
2023/02/23 12:34:17;;;;;;;47.63;6.72;;;;;;;;;;5079171;28;20043;-81
2023/02/23 12:36:47;;;;;;;48.45;7.40;;;;;;;;;;5094119;28;20044;-80
2023/02/23 12:39:31;;;;;;;49.80;8.38;;;;;;;;;;5076622;28;20942;-81
2023/02/23 12:41:57;;;;;;;;;;;;;;;;;;5096426;28;20147;-91
2023/02/23 12:44:36;;;;;;;51.75;8.90;;;;;;;;;;5079550;28;20076;-80
2023/02/23 12:47:07;;;;;;;50.38;6.22;;;;;;;;;;5080792;28;20105;-80
2023/02/23 12:49:37;;;;;;;49.03;7.57;;;;;;;;;;5080637;28;20127;-80
2023/02/23 12:52:08;;;;;;;46.10;7.15;;;;;;;;;;5094107;28;20036;-82
2023/02/23 12:54:35;;;;;;;54.30;8.43;;;;;;;;;;5096006;28;20050;-82
2023/02/23 12:57:01;;;;;;;42.00;8.30;;;;;;;;;;5097364;28;20040;-83
2023/02/23 12:59:45;;;;;;;34.85;7.20;;;;;;;;;;5099210;28;20051;-81
2023/02/23 13:02:14;;;;;;;41.83;8.02;;;;;;;;;;5094724;28;20131;-85
2023/02/23 13:04:46;;;;;;;35.20;6.18;;;;;;;;;;5103215;28;20054;-81
2023/02/23 13:07:19;;;;;;;48.20;7.80;;;;;;;;;;5083386;28;20432;-87
2023/02/23 13:09:51;;;;;;;37.05;5.97;;;;;;;;;;5079540;28;20105;-88
2023/02/23 13:12:23;;;;;;;32.90;5.55;;;;;;;;;;5085092;28;20050;-90
2023/02/23 13:14:57;;;;;;;33.80;5.63;;;;;;;;;;5104633;28;20462;-91
2023/02/23 13:17:38;;;;;;;42.70;7.15;;;;;;;;;;5078132;28;20048;-89
2023/02/23 13:20:09;;;;;;;39.13;6.18;;;;;;;;;;5079045;28;20044;-89
2023/02/23 13:22:40;;;;;;;37.03;5.85;;;;;;;;;;5094383;28;20051;-90
2023/02/23 13:25:19;;;;;;;46.08;6.95;;;;;;;;;;5081355;28;20115;-89
2023/02/23 13:27:50;;;;;;;36.80;5.13;;;;;;;;;;5083054;28;20091;-89
2023/02/23 13:30:19;;;;;;;37.78;5.68;;;;;;;;;;5082600;28;20040;-89
2023/02/23 13:32:46;;;;;;;41.95;6.47;;;;;;;;;;5084148;28;20047;-89
2023/02/23 13:35:15;;;;;;;49.22;6.75;;;;;;;;;;5078990;28;20126;-91
2023/02/23 13:37:44;;;;;;;47.72;7.43;;;;;;;;;;5080144;28;20197;-90
2023/02/23 13:40:16;;;;;;;46.40;6.22;;;;;;;;;;5083092;28;20083;-92
2023/02/23 13:42:55;;;;;;;50.47;6.65;;;;;;;;;;5080532;28;20056;-88
2023/02/23 13:45:25;;;;;;;57.35;7.40;;;;;;;;;;5072154;28;21666;-95
2023/02/23 13:47:51;;;;;;;49.10;7.57;;;;;;;;;;5073415;28;20053;-91
2023/02/23 13:50:18;;;;;;;46.65;8.15;;;;;;;;;;5076576;28;20041;-91
2023/02/23 13:52:45;;;;;;;30.65;7.00;;;;;;;;;;5081314;28;20051;-90
2023/02/23 13:55:35;;;;;;;52.35;7.05;;;;;;;;;;5057966;28;20047;-90
2023/02/23 13:58:05;;;;;;;47.40;7.03;;;;;;;;;;5075961;28;20420;-90
2023/02/23 14:00:33;;;;;;;39.92;7.53;;;;;;;;;;5070933;28;20192;-84
2023/02/23 14:03:03;;;;;;;40.58;5.88;;;;;;;;;;5073417;28;20055;-91
2023/02/23 14:05:29;;;;;;;33.55;5.97;;;;;;;;;;5070536;28;20556;-87
2023/02/23 14:08:01;;;;;;;57.47;7.28;;;;;;;;;;5080465;28;20067;-89
2023/02/23 14:10:30;;;;;;;57.75;8.15;;;;;;;;;;5077281;28;20097;-87
2023/02/23 14:13:05;;;;;;;50.38;7.90;;;;;;;;;;5075060;28;20047;-88
2023/02/23 14:15:32;;;;;;;37.33;6.50;;;;;;;;;;5073222;28;20054;-90
2023/02/23 14:18:01;;;;;;;43.55;6.53;;;;;;;;;;5077988;28;20460;-89
2023/02/23 14:20:39;;;;;;;49.17;8.48;;;;;;;;;;5074289;28;20409;-88
2023/02/23 14:23:14;;;;;;;37.88;6.07;;;;;;;;;;5076701;28;20376;-85
2023/02/23 14:25:44;;;;;;;46.10;6.45;;;;;;;;;;5074101;28;20515;-85
2023/02/23 14:28:22;;;;;;;45.72;5.82;;;;;;;;;;5074861;28;20052;-84
2023/02/23 14:30:59;;;;;;;32.35;5.28;;;;;;;;;;5077096;28;20391;-83
2023/02/23 14:33:34;;;;;;;31.90;4.85;;;;;;;;;;5073492;28;20126;-90
2023/02/23 14:36:01;;;;;;;35.92;5.78;;;;;;;;;;5073965;28;20131;-86
2023/02/23 14:38:31;;;;;;;38.83;5.53;;;;;;;;;;5071837;28;21201;-84
2023/02/23 14:41:00;;;;;;;33.15;4.75;;;;;;;;;;5076073;28;20036;-90
2023/02/23 14:43:37;;;;;;;29.27;4.15;;;;;;;;;;5096020;28;20090;-86
2023/02/23 14:46:04;;;;;;;31.50;4.35;;;;;;;;;;5091812;28;20043;-88
2023/02/23 14:48:35;;;;;;;29.23;5.35;;;;;;;;;;5074673;28;20048;-87
2023/02/23 14:51:10;;;;;;;26.55;4.60;;;;;;;;;;5073949;28;20135;-89
2023/02/23 14:53:37;;;;;;;28.67;6.22;;;;;;;;;;5078673;28;20054;-84
2023/02/23 14:56:03;;;;;;;29.60;4.75;;;;;;;;;;5096209;28;20491;-85
2023/02/23 14:58:32;;;;;;;33.13;4.72;;;;;;;;;;5075812;28;20043;-87
2023/02/23 15:00:59;;;;;;;29.08;4.97;;;;;;;;;;5080207;28;20055;-87
2023/02/23 15:03:25;;;;;;;33.22;4.63;;;;;;;;;;5098401;28;20181;-90
2023/02/23 15:05:54;;;;;;;32.30;4.75;;;;;;;;;;5075802;28;20052;-88
2023/02/23 15:08:23;;;;;;;22.52;4.05;;;;;;;;;;5084121;28;20047;-87
2023/02/23 15:10:51;;;;;;;38.67;5.55;;;;;;;;;;5061189;28;20135;-89
2023/02/23 15:13:28;;;;;;;36.28;4.93;;;;;;;;;;5099133;28;20427;-89
2023/02/23 15:15:54;;;;;;;27.15;4.00;;;;;;;;;;5102522;28;20047;-90
2023/02/23 15:18:22;;;;;;;26.48;4.55;;;;;;;;;;5081515;28;20048;-89
2023/02/23 15:20:49;;;;;;;29.48;4.40;;;;;;;;;;5101082;28;20546;-90
2023/02/23 15:23:17;;;;;;;23.77;4.10;;;;;;;;;;5083452;28;20051;-90
2023/02/23 15:25:46;;;;;;;24.83;3.65;;;;;;;;;;5077646;28;20470;-89
2023/02/23 15:28:22;;;;;;;23.98;4.35;;;;;;;;;;5097985;28;20086;-89
2023/02/23 15:30:49;;;;;;;28.55;4.18;;;;;;;;;;5083864;28;20385;-90
2023/02/23 15:33:27;;;;;;;24.33;3.88;;;;;;;;;;5081089;28;20102;-90
2023/02/23 15:35:56;;;;;;;27.65;4.45;;;;;;;;;;5086689;28;20100;-90
2023/02/23 15:38:24;;;;;;;26.98;4.65;;;;;;;;;;5100320;28;20055;-90
2023/02/23 15:40:54;;;;;;;21.77;3.90;;;;;;;;;;5100164;28;20108;-90
2023/02/23 15:43:20;;;;;;;23.75;3.42;;;;;;;;;;5082452;28;20127;-91